createdAt,value
2019-05-29T00:01:54.276Z,78.23
2019-05-29T00:04:23.515Z,78.17
2019-05-29T00:06:52.697Z,77.97
2019-05-29T00:09:22.292Z,77.53
2019-05-29T00:11:51.622Z,77.38
2019-05-29T00:14:27.173Z,77.42
2019-05-29T00:16:52.847Z,76.43
2019-05-29T00:19:22.089Z,76.00
2019-05-29T00:21:51.654Z,75.68
2019-05-29T00:24:21.149Z,75.94
2019-05-29T00:26:52.214Z,75.62
2019-05-29T00:29:21.809Z,75.12
2019-05-29T00:32:11.909Z,75.31
2019-05-29T00:34:41.210Z,76.22
2019-05-29T00:37:10.525Z,76.48
2019-05-29T00:39:39.976Z,76.04
2019-05-29T00:42:09.202Z,76.64
2019-05-29T00:44:38.387Z,77.10
2019-05-29T00:47:07.619Z,76.86
2019-05-29T00:49:36.804Z,76.70
2019-05-29T00:52:06.052Z,76.71
2019-05-29T00:54:35.241Z,77.05
2019-05-29T00:57:05.512Z,76.58
2019-05-29T00:59:34.696Z,77.02
2019-05-29T01:02:04.347Z,76.93
2019-05-29T01:04:33.502Z,77.35
2019-05-29T01:07:02.780Z,77.29
2019-05-29T01:09:32.260Z,77.34
2019-05-29T01:12:01.499Z,77.80
2019-05-29T01:14:30.683Z,77.72
2019-05-29T01:16:59.990Z,77.67
2019-05-29T01:19:29.187Z,77.37
2019-05-29T01:21:58.389Z,78.04
2019-05-29T01:24:28.015Z,77.68
2019-05-29T01:26:57.610Z,77.38
2019-05-29T01:29:27.263Z,77.46
2019-05-29T01:34:46.326Z,76.52
2019-05-29T01:37:16.119Z,76.58
2019-05-29T01:39:46.484Z,76.23
2019-05-29T01:42:15.668Z,76.33
2019-05-29T01:44:44.924Z,76.64
2019-05-29T01:47:15.342Z,76.41
2019-05-29T01:49:45.393Z,76.40
2019-05-29T01:52:15.519Z,76.65
2019-05-29T01:54:45.928Z,76.05
2019-05-29T01:57:15.759Z,76.19
2019-05-29T01:59:46.146Z,76.68
2019-05-29T02:02:15.757Z,76.59
2019-05-29T02:04:46.752Z,76.24
2019-05-29T02:07:15.941Z,75.73
2019-05-29T02:09:45.128Z,75.77
2019-05-29T02:12:14.383Z,76.16
2019-05-29T02:14:43.583Z,76.21
2019-05-29T02:17:12.896Z,76.26
2019-05-29T02:19:42.099Z,76.45
2019-05-29T02:22:11.613Z,76.21
2019-05-29T02:24:40.808Z,76.37
2019-05-29T02:27:10.057Z,76.72
2019-05-29T02:29:39.623Z,76.61
2019-05-29T02:32:08.869Z,76.46
2019-05-29T02:34:38.062Z,76.68
2019-05-29T02:37:07.306Z,76.08
2019-05-29T02:39:36.627Z,76.90
2019-05-29T02:42:06.219Z,76.94
2019-05-29T02:44:35.407Z,76.90
2019-05-29T02:47:04.647Z,77.17
2019-05-29T02:49:34.284Z,77.36
2019-05-29T02:52:03.519Z,77.00
2019-05-29T02:54:33.023Z,77.34
2019-05-29T02:57:02.641Z,77.37
2019-05-29T02:59:32.232Z,76.71
2019-05-29T03:02:02.826Z,77.11
2019-05-29T03:04:33.053Z,77.39
2019-05-29T03:07:42.992Z,77.46
2019-05-29T03:13:20.878Z,77.70
2019-05-29T03:16:08.771Z,77.54
2019-05-29T03:18:21.392Z,77.92
2019-05-29T03:20:50.921Z,77.94
2019-05-29T03:23:20.229Z,77.52
2019-05-29T03:25:49.752Z,77.65
2019-05-29T03:28:18.993Z,77.79
2019-05-29T03:30:48.189Z,77.29
2019-05-29T03:33:17.444Z,77.05
2019-05-29T03:35:48.487Z,76.51
2019-05-29T03:38:17.555Z,76.45
2019-05-29T03:40:47.172Z,76.80
2019-05-29T03:43:16.353Z,76.78
2019-05-29T03:45:45.600Z,77.43
2019-05-29T03:48:14.792Z,77.50
2019-05-29T03:50:44.039Z,77.56
2019-05-29T03:53:13.227Z,77.33
2019-05-29T03:55:42.476Z,77.63
2019-05-29T03:58:11.667Z,77.91
2019-05-29T04:00:46.038Z,77.67
2019-05-29T04:03:12.199Z,77.46
2019-05-29T04:05:41.449Z,77.30
2019-05-29T04:08:10.647Z,77.03
2019-05-29T04:11:19.258Z,76.80
2019-05-29T04:13:48.844Z,76.85
2019-05-29T04:22:32.870Z,76.17
2019-05-29T04:25:43.063Z,75.76
2019-05-29T04:28:12.665Z,75.52
2019-05-29T04:30:41.907Z,75.17
2019-05-29T04:33:11.107Z,74.82
2019-05-29T04:35:40.362Z,74.18
2019-05-29T04:38:09.544Z,74.78
2019-05-29T04:40:39.579Z,74.87
2019-05-29T04:43:09.705Z,74.71
2019-05-29T04:45:40.147Z,74.37
2019-05-29T04:48:10.549Z,74.57
2019-05-29T04:50:40.608Z,74.24
2019-05-29T04:53:10.709Z,74.55
2019-05-29T04:55:40.031Z,74.35
2019-05-29T04:58:09.271Z,74.51
2019-05-29T05:00:39.363Z,74.95
2019-05-29T05:03:09.422Z,74.96
2019-05-29T05:05:39.576Z,74.47
2019-05-29T05:08:09.623Z,74.53
2019-05-29T05:10:41.128Z,75.63
2019-05-29T05:13:10.486Z,76.27
2019-05-29T05:15:40.248Z,75.51
2019-05-29T05:18:50.171Z,75.15
2019-05-29T05:21:19.359Z,74.82
2019-05-29T05:23:48.604Z,75.07
2019-05-29T05:26:17.909Z,74.80
2019-05-29T05:28:47.458Z,74.13
2019-05-29T05:31:18.241Z,74.14
2019-05-29T05:33:47.481Z,74.21
2019-05-29T05:36:17.045Z,74.19
2019-05-29T05:38:46.294Z,73.58
2019-05-29T05:41:15.486Z,73.23
2019-05-29T05:43:44.678Z,72.78
2019-05-29T05:46:13.918Z,72.73
2019-05-29T05:48:43.113Z,72.10
2019-05-29T05:51:12.360Z,70.94
2019-05-29T05:53:41.962Z,69.77
2019-05-29T05:56:11.237Z,69.34
2019-05-29T05:58:40.416Z,69.57
2019-05-29T06:01:09.654Z,70.18
2019-05-29T06:06:48.169Z,71.76
2019-05-29T06:09:17.355Z,71.54
2019-05-29T06:11:46.597Z,71.23
2019-05-29T06:14:16.111Z,71.03
2019-05-29T06:16:45.346Z,70.76
2019-05-29T06:19:14.593Z,70.49
2019-05-29T06:21:44.390Z,70.45
2019-05-29T06:24:13.697Z,70.04
2019-05-29T06:26:43.099Z,69.88
2019-05-29T06:29:12.626Z,69.49
2019-05-29T06:32:00.883Z,69.01
2019-05-29T06:34:30.528Z,68.26
2019-05-29T06:37:00.425Z,68.42
2019-05-29T06:39:30.029Z,68.66
2019-05-29T06:41:59.373Z,68.40
2019-05-29T06:44:28.570Z,67.98
2019-05-29T06:46:58.169Z,67.90
2019-05-29T06:49:27.800Z,67.86
2019-05-29T06:51:57.797Z,67.32
2019-05-29T06:54:27.595Z,67.13
2019-05-29T06:56:57.205Z,66.56
2019-05-29T06:59:26.690Z,65.61
2019-05-29T07:01:56.731Z,64.30
2019-05-29T07:04:25.913Z,63.17
2019-05-29T07:06:55.510Z,62.96
2019-05-29T07:09:25.019Z,62.85
2019-05-29T07:11:54.256Z,63.33
2019-05-29T07:14:23.459Z,62.96
2019-05-29T07:16:56.186Z,61.76
2019-05-29T07:19:26.809Z,61.10
2019-05-29T07:21:55.100Z,60.13
2019-05-29T07:24:24.300Z,60.03
2019-05-29T07:26:53.549Z,60.33
2019-05-29T07:29:23.537Z,60.86
2019-05-29T07:31:52.791Z,61.14
2019-05-29T07:34:22.623Z,60.32
2019-05-29T07:36:52.263Z,60.12
2019-05-29T07:39:21.798Z,60.12
2019-05-29T07:41:51.163Z,59.58
2019-05-29T07:44:20.498Z,59.78
2019-05-29T07:46:49.801Z,59.73
2019-05-29T07:49:19.016Z,58.84
2019-05-29T07:51:48.824Z,56.97
2019-05-29T07:54:19.208Z,56.69
2019-05-29T07:56:48.705Z,57.00
2019-05-29T07:59:19.480Z,57.18
2019-05-29T08:01:49.311Z,56.65
2019-05-29T08:04:20.063Z,57.03
2019-05-29T08:06:54.231Z,57.72
2019-05-29T08:09:20.366Z,57.40
2019-05-29T08:11:50.126Z,56.54
2019-05-29T08:14:20.532Z,57.15
2019-05-29T08:16:50.166Z,58.94
2019-05-29T08:19:20.755Z,60.35
2019-05-29T08:21:50.606Z,60.49
2019-05-29T08:24:24.718Z,59.58
2019-05-29T08:26:52.323Z,58.85
2019-05-29T08:29:21.573Z,58.26
2019-05-29T08:31:51.030Z,57.79
2019-05-29T08:34:21.689Z,57.68
2019-05-29T08:37:10.011Z,57.57
2019-05-29T08:39:39.247Z,56.30
2019-05-29T08:42:22.500Z,56.64
2019-05-29T08:44:39.404Z,56.42
2019-05-29T08:47:10.857Z,56.17
2019-05-29T08:49:39.579Z,55.38
2019-05-29T08:55:02.662Z,56.19
2019-05-29T08:57:32.209Z,56.50
2019-05-29T09:00:01.725Z,56.45
2019-05-29T09:02:30.991Z,56.06
2019-05-29T09:05:00.252Z,55.90
2019-05-29T09:07:50.051Z,54.57
2019-05-29T09:10:19.776Z,52.97
2019-05-29T09:12:56.759Z,53.75
2019-05-29T09:15:59.365Z,53.59
2019-05-29T09:18:28.634Z,52.92
2019-05-29T09:21:03.333Z,52.87
2019-05-29T09:23:28.874Z,52.13
2019-05-29T09:26:13.634Z,53.00
2019-05-29T09:28:27.997Z,52.05
2019-05-29T09:30:57.192Z,52.17
2019-05-29T09:33:33.248Z,52.83
2019-05-29T09:36:02.856Z,52.82
2019-05-29T09:38:32.148Z,52.88
2019-05-29T09:41:01.423Z,52.20
2019-05-29T09:43:31.026Z,52.07
2019-05-29T09:46:02.381Z,51.67
2019-05-29T09:51:20.596Z,51.53
2019-05-29T09:53:38.403Z,51.61
2019-05-29T09:56:07.601Z,51.19
2019-05-29T09:58:37.259Z,51.23
2019-05-29T10:01:22.264Z,51.46
2019-05-29T10:03:38.576Z,51.91
2019-05-29T10:06:09.492Z,51.83
2019-05-29T10:08:39.496Z,51.60
2019-05-29T10:11:10.832Z,50.08
2019-05-29T10:13:40.171Z,49.93
2019-05-29T10:16:09.401Z,50.46
2019-05-29T10:18:38.752Z,51.74
2019-05-29T10:21:08.234Z,51.42
2019-05-29T10:23:37.441Z,51.77
2019-05-29T10:26:06.708Z,51.55
2019-05-29T10:28:50.173Z,51.26
2019-05-29T10:31:06.963Z,51.37
2019-05-29T10:33:36.551Z,51.94
2019-05-29T10:36:05.840Z,52.43
2019-05-29T10:38:35.383Z,53.66
2019-05-29T10:41:07.154Z,54.78
2019-05-29T10:43:35.976Z,55.22
2019-05-29T10:46:05.311Z,54.79
2019-05-29T10:48:34.862Z,54.05
2019-05-29T10:51:04.119Z,53.48
2019-05-29T10:53:33.783Z,51.90
2019-05-29T10:56:03.858Z,50.69
2019-05-29T10:58:48.061Z,50.13
2019-05-29T11:01:04.076Z,50.89
2019-05-29T11:03:33.321Z,50.37
2019-05-29T11:06:02.530Z,48.88
2019-05-29T11:08:31.780Z,47.72
2019-05-29T11:11:20.099Z,47.15
2019-05-29T11:13:50.525Z,47.15
2019-05-29T11:16:40.099Z,46.64
2019-05-29T11:19:10.618Z,46.64
2019-05-29T11:21:39.861Z,46.41
2019-05-29T11:24:49.939Z,45.34
2019-05-29T11:27:19.403Z,45.56
2019-05-29T11:29:48.797Z,45.21
2019-05-29T11:32:19.586Z,45.48
2019-05-29T11:34:49.040Z,45.79
2019-05-29T11:37:18.217Z,45.66
2019-05-29T11:39:47.422Z,45.62
2019-05-29T11:42:26.999Z,45.13
2019-05-29T11:44:47.712Z,44.83
2019-05-29T11:47:17.007Z,44.70
2019-05-29T11:49:46.194Z,44.21
2019-05-29T11:52:24.477Z,43.88
2019-05-29T11:54:47.307Z,43.36
2019-05-29T11:57:16.924Z,42.67
2019-05-29T11:59:46.148Z,42.66
2019-05-29T12:02:15.343Z,43.32
2019-05-29T12:04:45.019Z,43.27
2019-05-29T12:07:14.248Z,43.41
2019-05-29T12:09:43.496Z,43.27
2019-05-29T12:12:12.699Z,43.08
2019-05-29T12:14:59.071Z,43.69
2019-05-29T12:17:12.973Z,43.53
2019-05-29T12:19:42.276Z,42.79
2019-05-29T12:22:11.756Z,43.32
2019-05-29T12:24:40.997Z,44.00
2019-05-29T12:27:10.590Z,44.52
2019-05-29T12:29:40.201Z,44.67
2019-05-29T12:32:11.649Z,45.06
2019-05-29T12:37:14.900Z,45.29
2019-05-29T12:39:44.175Z,46.22
2019-05-29T12:42:13.359Z,47.20
2019-05-29T12:44:42.935Z,48.18
2019-05-29T12:47:31.263Z,50.67
2019-05-29T12:50:00.978Z,50.67
2019-05-29T12:52:31.436Z,50.77
2019-05-29T12:55:00.641Z,51.59
2019-05-29T12:57:30.216Z,52.51
2019-05-29T13:00:00.307Z,53.47
2019-05-29T13:05:45.437Z,55.75
2019-05-29T13:08:14.692Z,56.03
2019-05-29T13:10:43.950Z,55.28
2019-05-29T13:13:13.433Z,55.21
2019-05-29T13:15:42.973Z,55.42
2019-05-29T13:18:31.153Z,55.12
2019-05-29T13:21:00.961Z,54.34
2019-05-29T13:23:44.310Z,54.39
2019-05-29T13:26:03.683Z,54.67
2019-05-29T13:28:34.107Z,54.76
2019-05-29T13:31:04.593Z,54.90
2019-05-29T13:33:34.967Z,54.39
2019-05-29T13:36:04.591Z,54.45
2019-05-29T13:38:36.207Z,54.16
2019-05-29T13:41:07.749Z,54.40
2019-05-29T13:43:38.451Z,54.69
2019-05-29T13:46:07.713Z,54.81
2019-05-29T13:48:37.362Z,55.41
2019-05-29T13:51:07.379Z,55.45
2019-05-29T13:56:11.835Z,55.66
2019-05-29T13:58:41.077Z,55.67
2019-05-29T14:01:10.323Z,55.52
2019-05-29T14:03:39.563Z,55.56
2019-05-29T14:06:09.547Z,55.86
2019-05-29T14:08:39.727Z,56.29
2019-05-29T14:11:09.137Z,56.52
2019-05-29T14:13:39.935Z,56.49
2019-05-29T14:16:09.287Z,57.01
2019-05-29T14:18:38.465Z,56.86
2019-05-29T14:21:09.256Z,56.02
2019-05-29T14:23:39.924Z,55.75
2019-05-29T14:26:10.082Z,55.85
2019-05-29T14:28:39.706Z,54.57
2019-05-29T14:31:10.036Z,54.51
2019-05-29T14:33:39.878Z,54.43
2019-05-29T14:36:09.516Z,53.95
2019-05-29T14:38:39.172Z,53.81
2019-05-29T14:41:09.821Z,53.78
2019-05-29T14:43:39.665Z,53.58
2019-05-29T14:46:10.178Z,54.11
2019-05-29T14:48:40.179Z,54.25
2019-05-29T14:51:10.602Z,54.79
2019-05-29T14:53:40.725Z,54.53
2019-05-29T14:56:10.638Z,54.19
2019-05-29T14:58:40.900Z,53.41
2019-05-29T15:01:11.275Z,52.45
2019-05-29T15:03:41.525Z,50.61
2019-05-29T15:06:11.726Z,49.13
2019-05-29T15:09:03.531Z,48.34
2019-05-29T15:11:32.803Z,48.34
2019-05-29T15:14:02.101Z,47.89
2019-05-29T15:16:50.399Z,47.70
2019-05-29T15:19:31.308Z,47.79
2019-05-29T15:22:00.611Z,47.79
2019-05-29T15:24:29.802Z,48.82
2019-05-29T15:26:59.411Z,49.25
2019-05-29T15:29:28.599Z,49.51
2019-05-29T15:32:10.346Z,49.34
2019-05-29T15:34:29.126Z,50.00
2019-05-29T15:36:58.742Z,50.60
2019-05-29T15:39:28.258Z,50.86
2019-05-29T15:41:57.488Z,50.81
2019-05-29T15:44:27.072Z,50.70
2019-05-29T15:46:56.350Z,51.17
2019-05-29T15:49:25.526Z,51.43
2019-05-29T15:51:54.772Z,51.83
2019-05-29T15:54:23.986Z,52.24
2019-05-29T15:56:53.228Z,51.88
2019-05-29T15:59:22.421Z,52.10
2019-05-29T16:01:51.679Z,52.37
2019-05-29T16:04:20.878Z,52.63
2019-05-29T16:06:50.136Z,53.05
2019-05-29T16:09:19.389Z,53.38
2019-05-29T16:11:48.592Z,53.20
2019-05-29T16:14:19.033Z,53.32
2019-05-29T16:16:48.781Z,54.20
2019-05-29T16:19:18.439Z,54.46
2019-05-29T16:21:47.687Z,54.58
2019-05-29T16:24:17.292Z,54.80
2019-05-29T16:26:46.483Z,54.95
2019-05-29T16:31:55.484Z,55.47
2019-05-29T16:34:24.732Z,56.01
2019-05-29T16:36:53.918Z,55.89
2019-05-29T16:39:42.246Z,55.80
2019-05-29T16:42:11.947Z,55.69
2019-05-29T16:44:42.715Z,55.75
2019-05-29T16:47:12.483Z,56.07
2019-05-29T16:49:43.249Z,56.42
2019-05-29T16:52:12.891Z,56.66
2019-05-29T16:54:43.632Z,56.54
2019-05-29T16:57:13.433Z,56.39
2019-05-29T16:59:42.638Z,56.30
2019-05-29T17:02:13.529Z,56.34
2019-05-29T17:04:42.824Z,55.41
2019-05-29T17:07:12.083Z,55.38
2019-05-29T17:09:41.293Z,55.22
2019-05-29T17:12:10.534Z,55.38
2019-05-29T17:14:39.738Z,55.36
2019-05-29T17:17:09.003Z,54.54
2019-05-29T17:20:18.718Z,54.64
2019-05-29T17:22:48.931Z,54.41
2019-05-29T17:25:18.925Z,54.58
2019-05-29T17:27:49.140Z,54.54
2019-05-29T17:31:01.787Z,54.74
2019-05-29T17:36:03.561Z,54.85
2019-05-29T17:38:33.152Z,55.75
2019-05-29T17:41:02.700Z,55.48
2019-05-29T17:43:32.557Z,55.32
2019-05-29T17:46:01.790Z,55.37
2019-05-29T17:48:31.161Z,55.46
2019-05-29T17:51:00.355Z,55.51
2019-05-29T17:53:30.109Z,55.64
2019-05-29T17:55:59.418Z,55.64
2019-05-29T17:58:28.664Z,55.58
2019-05-29T18:00:57.866Z,55.67
2019-05-29T18:03:27.103Z,55.88
2019-05-29T18:05:56.732Z,55.73
2019-05-29T18:08:26.948Z,55.86
2019-05-29T18:10:57.314Z,55.93
2019-05-29T18:13:27.443Z,55.42
2019-05-29T18:15:57.549Z,55.29
2019-05-29T18:18:27.839Z,55.54
2019-05-29T18:20:58.614Z,55.86
2019-05-29T18:23:28.222Z,55.79
2019-05-29T18:25:59.187Z,56.10
2019-05-29T18:28:28.402Z,56.04
2019-05-29T18:30:57.618Z,56.16
2019-05-29T18:33:26.862Z,56.05
2019-05-29T18:35:56.735Z,56.62
2019-05-29T18:38:26.468Z,56.48
2019-05-29T18:40:57.645Z,56.92
2019-05-29T18:43:27.058Z,56.97
2019-05-29T18:45:56.320Z,56.84
2019-05-29T18:48:25.515Z,56.69
2019-05-29T18:51:13.692Z,56.51
2019-05-29T18:53:42.886Z,56.49
2019-05-29T18:56:12.135Z,56.73
2019-05-29T18:58:41.595Z,57.17
2019-05-29T19:01:10.847Z,56.95
2019-05-29T19:03:40.633Z,57.21
2019-05-29T19:06:31.853Z,57.66
2019-05-29T19:09:01.765Z,57.44
2019-05-29T19:11:31.991Z,56.84
2019-05-29T19:14:03.163Z,56.95
2019-05-29T19:16:32.459Z,57.15
2019-05-29T19:19:01.665Z,57.73
2019-05-29T19:21:30.980Z,57.29
2019-05-29T19:24:00.586Z,57.24
2019-05-29T19:26:33.684Z,57.54
2019-05-29T19:29:00.798Z,57.42
2019-05-29T19:34:18.685Z,57.14
2019-05-29T19:36:47.887Z,56.93
2019-05-29T19:39:17.463Z,56.92
2019-05-29T19:41:46.677Z,56.77
2019-05-29T19:44:18.183Z,56.60
2019-05-29T19:46:53.804Z,56.39
2019-05-29T19:49:19.405Z,56.49
2019-05-29T19:51:48.608Z,56.58
2019-05-29T19:54:18.179Z,56.66
2019-05-29T19:56:47.687Z,56.91
2019-05-29T19:59:17.287Z,56.78
2019-05-29T20:01:46.494Z,56.76
2019-05-29T20:04:15.793Z,56.73
2019-05-29T20:06:44.989Z,57.09
2019-05-29T20:09:14.242Z,57.25
2019-05-29T20:11:43.445Z,56.83
2019-05-29T20:16:48.441Z,56.76
2019-05-29T20:19:17.688Z,56.97
2019-05-29T20:21:47.413Z,56.70
2019-05-29T20:24:16.681Z,57.03
2019-05-29T20:26:46.243Z,56.60
2019-05-29T20:29:15.461Z,56.68
2019-05-29T20:31:44.712Z,56.74
2019-05-29T20:34:13.912Z,56.85
2019-05-29T20:36:43.548Z,57.05
2019-05-29T20:39:12.765Z,57.05
2019-05-29T20:41:43.541Z,56.55
2019-05-29T20:44:12.974Z,56.35
2019-05-29T20:46:42.802Z,56.60
2019-05-29T20:49:13.188Z,56.70
2019-05-29T20:51:42.467Z,57.26
2019-05-29T20:59:58.741Z,56.34
2019-05-29T21:02:28.010Z,56.48
2019-05-29T21:04:57.609Z,56.60
2019-05-29T21:07:27.607Z,56.14
2019-05-29T21:09:56.811Z,56.16
2019-05-29T21:12:26.069Z,56.29
2019-05-29T21:14:55.645Z,56.52
2019-05-29T21:17:25.290Z,56.75
2019-05-29T21:19:54.978Z,57.04
2019-05-29T21:22:24.255Z,57.32
2019-05-29T21:25:01.873Z,57.71
2019-05-29T21:27:24.469Z,57.72
2019-05-29T21:29:54.142Z,57.78
2019-05-29T21:32:23.417Z,58.03
2019-05-29T21:34:52.750Z,57.93
2019-05-29T21:37:22.381Z,57.71
2019-05-29T21:39:51.597Z,57.59
2019-05-29T21:42:20.868Z,57.87
2019-05-29T21:44:50.093Z,58.26
2019-05-29T21:47:20.277Z,59.11
2019-05-29T21:49:50.190Z,59.11
2019-05-29T21:52:19.711Z,59.06
2019-05-29T21:54:48.981Z,59.17
2019-05-29T21:57:18.246Z,59.40
2019-05-29T22:00:07.962Z,59.47
2019-05-29T22:02:38.255Z,60.18
2019-05-29T22:05:48.770Z,60.47
2019-05-29T22:08:19.231Z,60.06
2019-05-29T22:10:48.500Z,59.24
2019-05-29T22:13:17.740Z,59.21
2019-05-29T22:15:47.046Z,58.68
2019-05-29T22:18:16.317Z,58.63
2019-05-29T22:20:45.564Z,58.67
2019-05-29T22:25:49.483Z,58.60
2019-05-29T22:28:18.827Z,58.65
2019-05-29T22:30:48.391Z,58.66
2019-05-29T22:33:17.666Z,58.91
2019-05-29T22:35:46.885Z,58.93
2019-05-29T22:38:16.438Z,59.16
2019-05-29T22:40:45.641Z,59.05
2019-05-29T22:43:14.887Z,61.92
2019-05-29T22:45:44.079Z,63.79
2019-05-29T22:48:13.320Z,64.35
2019-05-29T22:50:42.515Z,65.16
2019-05-29T22:53:12.521Z,66.06
2019-05-29T22:55:41.708Z,66.55
2019-05-29T22:58:11.220Z,67.05
2019-05-29T23:00:40.805Z,67.40
2019-05-29T23:03:10.361Z,67.48
2019-05-29T23:05:39.612Z,68.23
2019-05-29T23:08:08.810Z,68.30
2019-05-29T23:10:38.062Z,68.49
2019-05-29T23:13:07.535Z,69.55
2019-05-29T23:15:37.442Z,69.39
2019-05-29T23:18:06.631Z,69.48
2019-05-29T23:20:35.910Z,69.81
2019-05-29T23:23:05.087Z,69.92
2019-05-29T23:25:34.324Z,70.30
2019-05-29T23:28:03.540Z,70.33
2019-05-29T23:30:33.184Z,71.05
2019-05-29T23:33:03.396Z,71.03
2019-05-29T23:35:33.326Z,71.77
2019-05-29T23:38:03.477Z,71.84
2019-05-29T23:40:33.767Z,71.85
2019-05-29T23:45:38.091Z,72.16
2019-05-29T23:48:07.274Z,71.57
2019-05-29T23:50:36.444Z,71.51
2019-05-29T23:53:05.960Z,71.34
2019-05-29T23:55:35.150Z,71.31
2019-05-29T23:58:08.197Z,71.38
